createdAt,value
2023-02-02T00:02:57.244Z,2.19
2023-02-02T00:05:59.716Z,2.04
2023-02-02T00:09:03.154Z,1.76
2023-02-02T00:12:05.614Z,1.58
2023-02-02T00:15:08.551Z,1.76
2023-02-02T00:18:10.938Z,1.82
2023-02-02T00:21:13.342Z,1.89
2023-02-02T00:24:18.194Z,1.82
2023-02-02T00:27:20.731Z,1.81
2023-02-02T00:30:23.284Z,1.86
2023-02-02T00:33:25.747Z,1.94
2023-02-02T00:36:28.150Z,1.98
2023-02-02T00:39:30.712Z,2.18
2023-02-02T00:42:33.833Z,2.23
2023-02-02T00:45:38.126Z,2.25
2023-02-02T00:48:40.548Z,2.16
2023-02-02T00:51:43.057Z,2.39
2023-02-02T00:54:45.481Z,2.39
2023-02-02T00:57:48.063Z,2.39
2023-02-02T01:00:50.717Z,2.50
2023-02-02T01:03:53.458Z,2.59
2023-02-02T01:06:55.865Z,2.61
2023-02-02T01:09:58.372Z,2.73
2023-02-02T01:13:01.085Z,2.70
2023-02-02T01:16:04.621Z,2.77
2023-02-02T01:19:07.256Z,2.71
2023-02-02T01:22:09.785Z,2.75
2023-02-02T01:25:12.280Z,2.74
2023-02-02T01:28:14.692Z,2.63
2023-02-02T01:31:18.945Z,2.56
2023-02-02T01:34:21.549Z,2.47
2023-02-02T01:37:24.085Z,2.61
2023-02-02T01:40:26.575Z,2.76
2023-02-02T01:43:45.308Z,2.73
2023-02-02T01:46:47.725Z,2.68
2023-02-02T01:49:50.687Z,2.66
2023-02-02T01:52:55.539Z,2.71
2023-02-02T01:55:58.404Z,2.72
2023-02-02T01:59:01.348Z,2.77
2023-02-02T02:02:03.910Z,2.77
2023-02-02T02:05:08.340Z,2.79
2023-02-02T02:08:22.188Z,2.88
2023-02-02T02:11:25.207Z,2.97
2023-02-02T02:14:46.784Z,2.97
2023-02-02T02:18:28.687Z,2.82
2023-02-02T02:21:57.217Z,2.72
2023-02-02T02:25:36.769Z,2.73
2023-02-02T02:29:01.054Z,2.78
2023-02-02T02:32:27.353Z,2.84
2023-02-02T02:36:02.924Z,2.80
2023-02-02T02:39:14.963Z,2.83
2023-02-02T02:42:21.307Z,2.85
2023-02-02T02:45:27.145Z,2.86
2023-02-02T02:48:31.287Z,2.76
2023-02-02T02:51:53.199Z,2.70
2023-02-02T02:55:01.572Z,2.62
2023-02-02T02:58:10.026Z,2.74
2023-02-02T03:01:21.785Z,2.70
2023-02-02T03:04:51.363Z,2.90
2023-02-02T03:08:12.172Z,2.84
2023-02-02T03:11:15.442Z,2.64
2023-02-02T03:14:17.780Z,2.56
2023-02-02T03:17:20.225Z,2.61
2023-02-02T03:20:22.781Z,2.51
2023-02-02T03:23:25.689Z,2.53
2023-02-02T03:26:28.169Z,2.48
2023-02-02T03:29:30.754Z,2.50
2023-02-02T03:32:33.445Z,2.42
2023-02-02T03:35:35.810Z,2.46
2023-02-02T03:38:38.465Z,2.53
2023-02-02T03:41:40.898Z,2.26
2023-02-02T03:44:43.293Z,2.27
2023-02-02T03:47:45.736Z,2.30
2023-02-02T03:50:48.237Z,2.36
2023-02-02T03:53:50.649Z,2.35
2023-02-02T03:56:53.057Z,2.36
2023-02-02T03:59:55.700Z,2.45
2023-02-02T04:02:58.171Z,2.33
2023-02-02T04:06:00.946Z,2.22
2023-02-02T04:09:03.551Z,2.36
2023-02-02T04:12:06.135Z,2.37
2023-02-02T04:15:09.086Z,2.24
2023-02-02T04:18:11.690Z,2.39
2023-02-02T04:21:14.065Z,2.41
2023-02-02T04:24:16.527Z,2.38
2023-02-02T04:27:18.926Z,2.22
2023-02-02T04:30:22.079Z,2.23
2023-02-02T04:33:26.394Z,2.21
2023-02-02T04:36:28.909Z,2.22
2023-02-02T04:39:31.515Z,2.24
2023-02-02T04:42:35.091Z,1.90
2023-02-02T04:45:37.865Z,2.06
2023-02-02T04:48:43.678Z,1.98
2023-02-02T04:51:46.263Z,2.02
2023-02-02T04:54:48.708Z,1.88
2023-02-02T04:57:51.214Z,1.99
2023-02-02T05:00:53.770Z,1.88
2023-02-02T05:03:56.435Z,2.18
2023-02-02T05:06:58.836Z,2.23
2023-02-02T05:10:01.382Z,2.33
2023-02-02T05:13:03.769Z,2.09
2023-02-02T05:16:07.127Z,2.08
2023-02-02T05:19:11.218Z,2.06
2023-02-02T05:22:13.663Z,2.17
2023-02-02T05:25:16.289Z,2.39
2023-02-02T05:28:18.926Z,2.29
2023-02-02T05:31:21.767Z,2.06
2023-02-02T05:34:24.292Z,1.94
2023-02-02T05:37:26.858Z,1.92
2023-02-02T05:40:29.484Z,2.03
2023-02-02T05:43:32.696Z,2.05
2023-02-02T05:46:35.177Z,1.97
2023-02-02T05:49:37.605Z,1.99
2023-02-02T05:52:40.842Z,2.00
2023-02-02T05:55:43.327Z,2.07
2023-02-02T05:58:48.137Z,2.06
2023-02-02T06:01:50.599Z,2.06
2023-02-02T06:04:52.972Z,2.09
2023-02-02T06:07:55.421Z,2.15
2023-02-02T06:10:57.942Z,2.13
2023-02-02T06:14:00.538Z,2.02
2023-02-02T06:17:03.013Z,2.00
2023-02-02T06:20:05.971Z,2.07
2023-02-02T06:23:08.526Z,2.08
2023-02-02T06:26:11.804Z,1.97
2023-02-02T06:29:14.504Z,2.08
2023-02-02T06:32:17.069Z,2.06
2023-02-02T06:35:19.838Z,2.02
2023-02-02T06:38:22.417Z,1.86
2023-02-02T06:41:25.643Z,1.93
2023-02-02T06:44:28.074Z,1.77
2023-02-02T06:47:32.863Z,1.78
2023-02-02T06:50:35.415Z,1.64
2023-02-02T06:53:37.887Z,1.74
2023-02-02T06:56:40.503Z,1.91
2023-02-02T06:59:43.074Z,2.11
2023-02-02T07:02:47.064Z,1.96
2023-02-02T07:05:49.725Z,2.00
2023-02-02T07:09:02.520Z,1.83
2023-02-02T07:12:06.231Z,1.76
2023-02-02T07:15:09.249Z,1.90
2023-02-02T07:18:11.734Z,1.83
2023-02-02T07:21:22.437Z,1.85
2023-02-02T07:24:25.136Z,1.93
2023-02-02T07:27:27.652Z,1.86
2023-02-02T07:30:30.189Z,1.91
2023-02-02T07:33:32.573Z,1.63
2023-02-02T07:36:35.220Z,1.69
2023-02-02T07:39:37.704Z,1.63
2023-02-02T07:42:40.398Z,1.72
2023-02-02T07:45:43.326Z,1.58
2023-02-02T07:48:45.953Z,1.44
2023-02-02T07:51:49.382Z,1.42
2023-02-02T07:54:57.673Z,1.15
2023-02-02T07:58:04.994Z,1.36
2023-02-02T08:01:09.516Z,1.40
2023-02-02T08:04:12.362Z,1.72
2023-02-02T08:07:15.168Z,1.82
2023-02-02T08:10:17.817Z,2.19
2023-02-02T08:13:20.968Z,2.42
2023-02-02T08:16:24.199Z,2.81
2023-02-02T08:19:27.017Z,2.98
2023-02-02T08:22:29.516Z,2.90
2023-02-02T08:25:31.912Z,3.18
2023-02-02T08:28:36.399Z,3.33
2023-02-02T08:31:43.019Z,3.72
2023-02-02T08:34:48.736Z,3.93
2023-02-02T08:37:51.180Z,4.11
2023-02-02T08:40:53.679Z,4.26
2023-02-02T08:43:56.162Z,4.30
2023-02-02T08:46:58.857Z,4.07
2023-02-02T08:50:01.469Z,4.09
2023-02-02T08:53:04.510Z,4.43
2023-02-02T08:56:13.394Z,4.24
2023-02-02T08:59:16.157Z,4.27
2023-02-02T09:02:19.084Z,4.31
2023-02-02T09:05:21.614Z,4.36
2023-02-02T09:08:24.155Z,4.36
2023-02-02T09:11:27.000Z,4.46
2023-02-02T09:14:29.862Z,4.66
2023-02-02T09:17:32.326Z,5.03
2023-02-02T09:20:35.070Z,5.28
2023-02-02T09:23:39.812Z,5.46
2023-02-02T09:26:43.386Z,5.61
2023-02-02T09:29:45.941Z,5.75
2023-02-02T09:32:51.319Z,6.08
2023-02-02T09:35:53.756Z,6.29
2023-02-02T09:38:56.544Z,6.33
2023-02-02T09:42:13.745Z,6.43
2023-02-02T09:45:26.722Z,6.59
2023-02-02T09:48:38.911Z,6.66
2023-02-02T09:51:46.596Z,6.73
2023-02-02T09:54:50.809Z,6.78
2023-02-02T09:57:56.118Z,6.66
2023-02-02T10:01:18.461Z,6.82
2023-02-02T10:04:27.999Z,6.90
2023-02-02T10:07:37.824Z,7.14
2023-02-02T10:10:43.444Z,7.05
2023-02-02T10:13:46.203Z,6.88
2023-02-02T10:16:49.682Z,6.97
2023-02-02T10:19:55.752Z,6.81
2023-02-02T10:23:03.217Z,7.09
2023-02-02T10:26:21.671Z,7.33
2023-02-02T10:29:47.999Z,7.71
2023-02-02T10:33:26.013Z,7.76
2023-02-02T10:36:49.934Z,7.94
2023-02-02T10:40:22.843Z,8.11
2023-02-02T10:43:51.774Z,7.70
2023-02-02T10:46:56.505Z,7.68
2023-02-02T10:50:15.211Z,7.41
2023-02-02T10:53:17.714Z,7.43
2023-02-02T10:56:35.450Z,7.78
2023-02-02T10:59:57.402Z,7.90
2023-02-02T11:03:04.529Z,7.50
2023-02-02T11:06:26.522Z,7.64
2023-02-02T11:09:37.282Z,7.82
2023-02-02T11:12:46.792Z,7.85
2023-02-02T11:15:49.377Z,8.38
2023-02-02T11:18:51.914Z,8.83
2023-02-02T11:21:59.170Z,8.57
2023-02-02T11:25:04.615Z,8.09
2023-02-02T11:28:18.789Z,7.76
2023-02-02T11:31:35.441Z,7.61
2023-02-02T11:34:37.988Z,7.25
2023-02-02T11:37:57.928Z,7.20
2023-02-02T11:41:09.230Z,7.08
2023-02-02T11:44:25.750Z,6.93
2023-02-02T11:47:30.540Z,6.82
2023-02-02T11:50:33.760Z,6.85
2023-02-02T11:53:47.172Z,6.82
2023-02-02T11:56:52.150Z,6.82
2023-02-02T12:00:16.043Z,6.81
2023-02-02T12:03:44.782Z,6.65
2023-02-02T12:06:47.274Z,6.75
2023-02-02T12:09:50.455Z,6.79
2023-02-02T12:12:59.844Z,6.31
2023-02-02T12:16:02.318Z,6.39
2023-02-02T12:19:30.133Z,6.22
2023-02-02T12:22:44.722Z,6.35
2023-02-02T12:25:59.348Z,6.50
2023-02-02T12:29:17.426Z,6.69
2023-02-02T12:32:25.824Z,6.64
2023-02-02T12:35:41.479Z,6.36
2023-02-02T12:39:14.885Z,6.37
2023-02-02T12:42:25.285Z,6.21
2023-02-02T12:45:33.911Z,6.50
2023-02-02T12:49:00.748Z,6.32
2023-02-02T12:52:16.265Z,6.84
2023-02-02T12:55:42.998Z,7.30
2023-02-02T12:58:56.284Z,7.22
2023-02-02T13:02:40.696Z,7.13
2023-02-02T13:05:55.328Z,7.26
2023-02-02T13:09:20.539Z,6.96
2023-02-02T13:12:24.022Z,7.15
2023-02-02T13:15:36.341Z,6.80
2023-02-02T13:18:51.986Z,6.99
2023-02-02T13:21:56.605Z,6.80
2023-02-02T13:25:01.319Z,6.79
2023-02-02T13:28:06.846Z,6.74
2023-02-02T13:31:18.137Z,6.78
2023-02-02T13:34:24.022Z,6.80
2023-02-02T13:37:54.291Z,6.75
2023-02-02T13:40:59.818Z,7.06
2023-02-02T13:44:02.381Z,6.74
2023-02-02T13:47:10.284Z,6.65
2023-02-02T13:50:16.920Z,6.72
2023-02-02T13:53:42.159Z,6.59
2023-02-02T13:57:04.801Z,6.68
2023-02-02T14:00:24.915Z,6.52
2023-02-02T14:03:38.904Z,6.58
2023-02-02T14:06:59.362Z,6.55
2023-02-02T14:10:01.826Z,6.37
2023-02-02T14:13:36.282Z,6.44
2023-02-02T14:16:38.573Z,6.26
2023-02-02T14:19:43.735Z,6.39
2023-02-02T14:22:48.416Z,6.19
2023-02-02T14:26:05.302Z,6.15
2023-02-02T14:29:31.295Z,6.27
2023-02-02T14:32:42.316Z,6.07
2023-02-02T14:35:44.659Z,6.16
2023-02-02T14:38:56.441Z,6.04
2023-02-02T14:42:36.823Z,5.98
2023-02-02T14:45:43.433Z,5.81
2023-02-02T14:48:57.156Z,5.74
2023-02-02T14:52:01.497Z,5.60
2023-02-02T14:55:04.343Z,5.57
2023-02-02T14:58:07.268Z,5.44
2023-02-02T15:01:32.692Z,5.65
2023-02-02T15:04:35.352Z,5.61
2023-02-02T15:07:52.070Z,5.58
2023-02-02T15:11:23.786Z,5.35
2023-02-02T15:14:30.717Z,5.44
2023-02-02T15:17:39.030Z,5.39
2023-02-02T15:20:49.887Z,5.31
2023-02-02T15:23:52.364Z,5.31
2023-02-02T15:26:55.793Z,5.28
2023-02-02T15:30:03.810Z,5.14
2023-02-02T15:33:23.786Z,5.20
2023-02-02T15:36:29.239Z,5.10
2023-02-02T15:39:35.057Z,4.92
2023-02-02T15:42:55.185Z,4.87
2023-02-02T15:46:10.487Z,4.92
2023-02-02T15:49:33.193Z,4.87
2023-02-02T15:52:46.629Z,4.76
2023-02-02T15:55:49.562Z,4.79
2023-02-02T15:58:54.952Z,4.70
2023-02-02T16:02:06.673Z,4.71
2023-02-02T16:05:31.169Z,4.68
2023-02-02T16:08:36.312Z,4.59
2023-02-02T16:11:42.287Z,4.35
2023-02-02T16:14:49.753Z,4.33
2023-02-02T16:18:03.546Z,4.36
2023-02-02T16:21:11.452Z,4.21
2023-02-02T16:24:29.682Z,4.17
2023-02-02T16:27:32.807Z,4.24
2023-02-02T16:30:38.028Z,4.21
2023-02-02T16:33:46.545Z,4.13
2023-02-02T16:37:28.130Z,4.08
2023-02-02T16:40:30.793Z,4.02
2023-02-02T16:43:34.394Z,3.97
2023-02-02T16:46:48.420Z,3.88
2023-02-02T16:50:10.104Z,3.88
2023-02-02T16:53:21.743Z,3.80
2023-02-02T16:56:27.895Z,3.81
2023-02-02T16:59:33.597Z,3.87
2023-02-02T17:02:39.166Z,3.78
2023-02-02T17:05:51.952Z,3.74
2023-02-02T17:08:56.408Z,3.69
2023-02-02T17:12:32.128Z,3.58
2023-02-02T17:15:36.822Z,3.55
2023-02-02T17:18:39.741Z,3.63
2023-02-02T17:21:42.419Z,3.64
2023-02-02T17:24:47.528Z,3.69
2023-02-02T17:27:50.056Z,3.52
2023-02-02T17:31:13.595Z,3.60
2023-02-02T17:34:16.120Z,3.48
2023-02-02T17:37:18.509Z,3.50
2023-02-02T17:40:22.595Z,3.45
2023-02-02T17:43:27.037Z,3.51
2023-02-02T17:46:31.098Z,3.33
2023-02-02T17:49:33.835Z,3.28
2023-02-02T17:52:39.538Z,3.40
2023-02-02T17:55:43.229Z,3.56
2023-02-02T17:58:45.881Z,3.76
2023-02-02T18:01:48.738Z,3.84
2023-02-02T18:04:51.518Z,4.03
2023-02-02T18:07:54.931Z,4.13
2023-02-02T18:10:59.529Z,3.92
2023-02-02T18:14:02.705Z,3.79
2023-02-02T18:17:05.124Z,3.83
2023-02-02T18:20:08.245Z,3.79
2023-02-02T18:23:11.422Z,3.64
2023-02-02T18:26:19.707Z,3.63
2023-02-02T18:29:22.622Z,3.57
2023-02-02T18:32:25.394Z,3.68
2023-02-02T18:35:28.418Z,3.65
2023-02-02T18:38:31.040Z,3.54
2023-02-02T18:41:33.897Z,3.44
2023-02-02T18:44:38.434Z,3.47
2023-02-02T18:47:41.644Z,3.37
2023-02-02T18:50:44.324Z,3.44
2023-02-02T18:53:47.471Z,3.29
2023-02-02T18:56:50.160Z,3.39
2023-02-02T18:59:53.017Z,3.39
2023-02-02T19:02:55.545Z,3.35
2023-02-02T19:06:16.231Z,3.24
2023-02-02T19:09:18.736Z,3.18
2023-02-02T19:12:26.814Z,3.15
2023-02-02T19:15:33.123Z,3.01
2023-02-02T19:18:35.667Z,3.00
2023-02-02T19:21:41.426Z,2.71
2023-02-02T19:24:44.072Z,2.69
2023-02-02T19:27:46.580Z,2.70
2023-02-02T19:30:50.758Z,2.48
2023-02-02T19:33:53.813Z,2.50
2023-02-02T19:36:56.487Z,2.36
2023-02-02T19:40:13.638Z,2.54
2023-02-02T19:43:24.569Z,2.52
2023-02-02T19:46:29.292Z,2.52
2023-02-02T19:49:35.080Z,2.64
2023-02-02T19:52:37.759Z,2.60
2023-02-02T19:55:40.652Z,2.61
2023-02-02T19:58:43.367Z,2.54
2023-02-02T20:01:47.887Z,2.51
2023-02-02T20:05:02.689Z,2.66
2023-02-02T20:08:26.615Z,2.52
2023-02-02T20:11:41.021Z,2.50
2023-02-02T20:14:43.851Z,2.45
2023-02-02T20:17:46.555Z,2.36
2023-02-02T20:20:52.830Z,2.39
2023-02-02T20:23:55.684Z,2.53
2023-02-02T20:27:02.587Z,2.49
2023-02-02T20:30:30.927Z,2.40
2023-02-02T20:33:34.000Z,2.29
2023-02-02T20:36:41.078Z,2.09
2023-02-02T20:40:01.529Z,2.30
2023-02-02T20:43:04.678Z,2.43
2023-02-02T20:46:07.262Z,2.35
2023-02-02T20:49:10.033Z,2.40
2023-02-02T20:52:21.355Z,2.41
2023-02-02T20:55:24.055Z,2.46
2023-02-02T20:58:26.868Z,2.27
2023-02-02T21:01:31.311Z,2.28
2023-02-02T21:04:34.379Z,2.25
2023-02-02T21:07:37.171Z,2.16
2023-02-02T21:10:41.191Z,2.17
2023-02-02T21:13:43.590Z,2.26
2023-02-02T21:16:46.318Z,2.33
2023-02-02T21:19:49.061Z,2.36
2023-02-02T21:22:51.731Z,2.35
2023-02-02T21:25:54.408Z,2.24
2023-02-02T21:28:58.326Z,2.18
2023-02-02T21:32:02.768Z,2.27
2023-02-02T21:35:06.623Z,2.34
2023-02-02T21:38:14.491Z,2.52
2023-02-02T21:41:16.855Z,2.62
2023-02-02T21:44:21.471Z,2.39
2023-02-02T21:47:30.324Z,2.57
2023-02-02T21:50:36.089Z,2.57
2023-02-02T21:53:38.432Z,2.51
2023-02-02T21:56:42.109Z,2.47
2023-02-02T21:59:46.794Z,2.45
2023-02-02T22:02:51.090Z,2.25
2023-02-02T22:06:19.210Z,2.13
2023-02-02T22:09:26.972Z,2.08
2023-02-02T22:12:30.037Z,2.04
2023-02-02T22:15:34.541Z,2.04
2023-02-02T22:18:37.002Z,1.98
2023-02-02T22:21:39.411Z,1.97
2023-02-02T22:24:58.697Z,1.97
2023-02-02T22:28:23.089Z,2.02
2023-02-02T22:31:25.870Z,2.20
2023-02-02T22:34:28.631Z,2.35
2023-02-02T22:37:31.073Z,2.23
2023-02-02T22:40:33.531Z,2.32
2023-02-02T22:43:35.991Z,2.26
2023-02-02T22:46:38.515Z,2.10
2023-02-02T22:49:41.192Z,2.07
2023-02-02T22:52:43.893Z,2.25
2023-02-02T22:55:46.373Z,2.32
2023-02-02T22:58:48.824Z,2.36
2023-02-02T23:01:51.251Z,2.25
2023-02-02T23:04:53.767Z,2.29
2023-02-02T23:07:56.320Z,2.30
2023-02-02T23:10:59.062Z,2.22
2023-02-02T23:14:01.436Z,1.99
2023-02-02T23:17:03.943Z,2.02
2023-02-02T23:20:09.245Z,1.95
2023-02-02T23:23:11.691Z,2.12
2023-02-02T23:26:14.136Z,2.13
2023-02-02T23:29:16.673Z,2.52
2023-02-02T23:32:19.221Z,2.60
2023-02-02T23:35:21.620Z,2.42
2023-02-02T23:38:24.033Z,2.26
2023-02-02T23:41:26.610Z,2.16
2023-02-02T23:44:29.079Z,1.84
2023-02-02T23:47:33.885Z,1.87
2023-02-02T23:50:39.903Z,1.86
2023-02-02T23:53:42.778Z,2.03
2023-02-02T23:56:45.268Z,1.98
2023-02-02T23:59:47.902Z,1.90
